sensor_id;sensor_type;location;lat;lon;timestamp;P1;durP1;ratioP1;P2;durP2;ratioP2
31746;SDS011;18319;48.974;8.462;2023-02-15T00:01:54;34.20;;;18.03;;
31746;SDS011;18319;48.974;8.462;2023-02-15T00:04:23;30.30;;;16.20;;
31746;SDS011;18319;48.974;8.462;2023-02-15T00:07:12;30.03;;;16.73;;
31746;SDS011;18319;48.974;8.462;2023-02-15T00:09:39;27.63;;;15.47;;
31746;SDS011;18319;48.974;8.462;2023-02-15T00:12:06;30.47;;;17.33;;
31746;SDS011;18319;48.974;8.462;2023-02-15T00:14:33;31.00;;;15.80;;
31746;SDS011;18319;48.974;8.462;2023-02-15T00:17:00;34.67;;;17.77;;
31746;SDS011;18319;48.974;8.462;2023-02-15T00:19:27;33.10;;;16.37;;
31746;SDS011;18319;48.974;8.462;2023-02-15T00:21:54;28.93;;;16.80;;
31746;SDS011;18319;48.974;8.462;2023-02-15T00:24:23;36.83;;;17.93;;
31746;SDS011;18319;48.974;8.462;2023-02-15T00:26:50;28.33;;;16.53;;
31746;SDS011;18319;48.974;8.462;2023-02-15T00:29:17;35.33;;;17.50;;
31746;SDS011;18319;48.974;8.462;2023-02-15T00:31:45;30.03;;;17.63;;
31746;SDS011;18319;48.974;8.462;2023-02-15T00:34:14;34.20;;;17.70;;
31746;SDS011;18319;48.974;8.462;2023-02-15T00:36:41;34.33;;;20.43;;
31746;SDS011;18319;48.974;8.462;2023-02-15T00:39:08;29.67;;;18.20;;
31746;SDS011;18319;48.974;8.462;2023-02-15T00:41:37;39.60;;;18.80;;
31746;SDS011;18319;48.974;8.462;2023-02-15T00:44:04;29.47;;;17.57;;
31746;SDS011;18319;48.974;8.462;2023-02-15T00:46:31;31.80;;;18.43;;
31746;SDS011;18319;48.974;8.462;2023-02-15T00:48:58;29.57;;;16.17;;
31746;SDS011;18319;48.974;8.462;2023-02-15T00:51:26;23.03;;;14.87;;
31746;SDS011;18319;48.974;8.462;2023-02-15T00:53:53;26.23;;;15.87;;
31746;SDS011;18319;48.974;8.462;2023-02-15T00:56:20;24.03;;;14.23;;
31746;SDS011;18319;48.974;8.462;2023-02-15T00:58:49;26.63;;;14.03;;
31746;SDS011;18319;48.974;8.462;2023-02-15T01:01:17;25.47;;;15.33;;
31746;SDS011;18319;48.974;8.462;2023-02-15T01:03:44;21.63;;;13.70;;
31746;SDS011;18319;48.974;8.462;2023-02-15T01:06:12;25.90;;;16.03;;
31746;SDS011;18319;48.974;8.462;2023-02-15T01:08:39;23.80;;;14.10;;
31746;SDS011;18319;48.974;8.462;2023-02-15T01:11:08;24.13;;;14.30;;
31746;SDS011;18319;48.974;8.462;2023-02-15T01:13:36;22.40;;;14.37;;
31746;SDS011;18319;48.974;8.462;2023-02-15T01:16:04;18.97;;;13.27;;
31746;SDS011;18319;48.974;8.462;2023-02-15T01:18:31;22.97;;;14.10;;
31746;SDS011;18319;48.974;8.462;2023-02-15T01:20:59;28.10;;;15.20;;
31746;SDS011;18319;48.974;8.462;2023-02-15T01:23:26;25.23;;;14.27;;
31746;SDS011;18319;48.974;8.462;2023-02-15T01:25:53;27.13;;;15.83;;
31746;SDS011;18319;48.974;8.462;2023-02-15T01:28:20;27.20;;;16.23;;
31746;SDS011;18319;48.974;8.462;2023-02-15T01:30:47;24.30;;;14.30;;
31746;SDS011;18319;48.974;8.462;2023-02-15T01:33:15;29.53;;;15.33;;
31746;SDS011;18319;48.974;8.462;2023-02-15T01:35:43;23.90;;;13.63;;
31746;SDS011;18319;48.974;8.462;2023-02-15T01:38:11;26.43;;;16.00;;
31746;SDS011;18319;48.974;8.462;2023-02-15T01:40:38;27.93;;;14.97;;
31746;SDS011;18319;48.974;8.462;2023-02-15T01:43:08;25.23;;;15.57;;
31746;SDS011;18319;48.974;8.462;2023-02-15T01:45:35;21.37;;;14.13;;
31746;SDS011;18319;48.974;8.462;2023-02-15T01:48:03;23.30;;;13.77;;
31746;SDS011;18319;48.974;8.462;2023-02-15T01:50:33;21.73;;;12.73;;
31746;SDS011;18319;48.974;8.462;2023-02-15T01:53:01;20.30;;;13.40;;
31746;SDS011;18319;48.974;8.462;2023-02-15T01:55:31;18.43;;;12.57;;
31746;SDS011;18319;48.974;8.462;2023-02-15T01:58:00;20.77;;;12.57;;
31746;SDS011;18319;48.974;8.462;2023-02-15T02:00:27;18.73;;;12.27;;
31746;SDS011;18319;48.974;8.462;2023-02-15T02:02:54;18.27;;;11.70;;
31746;SDS011;18319;48.974;8.462;2023-02-15T02:05:22;17.03;;;11.30;;
31746;SDS011;18319;48.974;8.462;2023-02-15T02:07:51;18.30;;;10.90;;
31746;SDS011;18319;48.974;8.462;2023-02-15T02:10:20;17.57;;;12.57;;
31746;SDS011;18319;48.974;8.462;2023-02-15T02:12:49;19.80;;;12.23;;
31746;SDS011;18319;48.974;8.462;2023-02-15T02:15:17;20.03;;;12.27;;
31746;SDS011;18319;48.974;8.462;2023-02-15T02:17:48;16.00;;;11.00;;
31746;SDS011;18319;48.974;8.462;2023-02-15T02:20:41;18.67;;;12.23;;
31746;SDS011;18319;48.974;8.462;2023-02-15T02:23:17;18.23;;;11.30;;
31746;SDS011;18319;48.974;8.462;2023-02-15T02:28:51;18.93;;;11.33;;
31746;SDS011;18319;48.974;8.462;2023-02-15T02:31:30;17.37;;;11.43;;
31746;SDS011;18319;48.974;8.462;2023-02-15T02:34:04;21.03;;;12.90;;
31746;SDS011;18319;48.974;8.462;2023-02-15T02:36:34;19.17;;;12.33;;
31746;SDS011;18319;48.974;8.462;2023-02-15T02:39:09;18.73;;;12.60;;
31746;SDS011;18319;48.974;8.462;2023-02-15T02:41:43;15.87;;;10.77;;
31746;SDS011;18319;48.974;8.462;2023-02-15T02:44:13;16.43;;;10.50;;
31746;SDS011;18319;48.974;8.462;2023-02-15T02:46:44;17.33;;;11.27;;
31746;SDS011;18319;48.974;8.462;2023-02-15T02:49:14;19.53;;;12.67;;
31746;SDS011;18319;48.974;8.462;2023-02-15T02:51:41;18.53;;;11.60;;
31746;SDS011;18319;48.974;8.462;2023-02-15T02:54:08;20.93;;;12.87;;
31746;SDS011;18319;48.974;8.462;2023-02-15T02:56:36;20.43;;;13.50;;
31746;SDS011;18319;48.974;8.462;2023-02-15T02:59:05;19.93;;;12.17;;
31746;SDS011;18319;48.974;8.462;2023-02-15T03:01:35;24.53;;;12.80;;
31746;SDS011;18319;48.974;8.462;2023-02-15T03:04:03;20.20;;;12.60;;
31746;SDS011;18319;48.974;8.462;2023-02-15T03:06:36;18.10;;;12.20;;
31746;SDS011;18319;48.974;8.462;2023-02-15T03:09:09;18.77;;;12.27;;
31746;SDS011;18319;48.974;8.462;2023-02-15T03:11:42;18.13;;;12.13;;
31746;SDS011;18319;48.974;8.462;2023-02-15T03:14:09;19.10;;;12.57;;
31746;SDS011;18319;48.974;8.462;2023-02-15T03:16:37;23.10;;;13.03;;
31746;SDS011;18319;48.974;8.462;2023-02-15T03:19:05;21.63;;;12.87;;
31746;SDS011;18319;48.974;8.462;2023-02-15T03:21:36;19.73;;;13.40;;
31746;SDS011;18319;48.974;8.462;2023-02-15T03:24:07;17.23;;;12.30;;
31746;SDS011;18319;48.974;8.462;2023-02-15T03:26:35;20.27;;;12.60;;
31746;SDS011;18319;48.974;8.462;2023-02-15T03:29:03;15.43;;;11.87;;
31746;SDS011;18319;48.974;8.462;2023-02-15T03:31:32;17.00;;;11.37;;
31746;SDS011;18319;48.974;8.462;2023-02-15T03:34:02;17.47;;;11.67;;
31746;SDS011;18319;48.974;8.462;2023-02-15T03:36:32;19.93;;;12.17;;
31746;SDS011;18319;48.974;8.462;2023-02-15T03:39:05;19.03;;;12.67;;
31746;SDS011;18319;48.974;8.462;2023-02-15T03:41:36;16.90;;;11.57;;
31746;SDS011;18319;48.974;8.462;2023-02-15T03:44:04;17.83;;;12.27;;
31746;SDS011;18319;48.974;8.462;2023-02-15T03:46:35;20.77;;;12.60;;
31746;SDS011;18319;48.974;8.462;2023-02-15T03:49:04;19.40;;;12.67;;
31746;SDS011;18319;48.974;8.462;2023-02-15T03:51:34;16.67;;;11.47;;
31746;SDS011;18319;48.974;8.462;2023-02-15T03:54:05;15.83;;;11.43;;
31746;SDS011;18319;48.974;8.462;2023-02-15T03:56:33;17.37;;;12.30;;
31746;SDS011;18319;48.974;8.462;2023-02-15T03:59:01;22.47;;;12.67;;
31746;SDS011;18319;48.974;8.462;2023-02-15T04:01:47;17.07;;;11.43;;
31746;SDS011;18319;48.974;8.462;2023-02-15T04:04:25;18.53;;;11.53;;
31746;SDS011;18319;48.974;8.462;2023-02-15T04:06:53;19.63;;;11.90;;
31746;SDS011;18319;48.974;8.462;2023-02-15T04:09:22;18.10;;;11.93;;
31746;SDS011;18319;48.974;8.462;2023-02-15T04:12:06;16.60;;;10.53;;
31746;SDS011;18319;48.974;8.462;2023-02-15T04:14:34;18.93;;;11.70;;
31746;SDS011;18319;48.974;8.462;2023-02-15T04:17:19;19.63;;;11.70;;
31746;SDS011;18319;48.974;8.462;2023-02-15T04:19:46;18.93;;;12.20;;
31746;SDS011;18319;48.974;8.462;2023-02-15T04:22:30;19.20;;;11.43;;
31746;SDS011;18319;48.974;8.462;2023-02-15T04:25:17;17.83;;;10.83;;
31746;SDS011;18319;48.974;8.462;2023-02-15T04:27:46;16.27;;;11.93;;
31746;SDS011;18319;48.974;8.462;2023-02-15T04:30:14;20.80;;;12.57;;
31746;SDS011;18319;48.974;8.462;2023-02-15T04:32:42;19.70;;;12.53;;
31746;SDS011;18319;48.974;8.462;2023-02-15T04:35:09;16.30;;;11.43;;
31746;SDS011;18319;48.974;8.462;2023-02-15T04:37:37;14.83;;;10.83;;
31746;SDS011;18319;48.974;8.462;2023-02-15T04:40:05;18.63;;;12.03;;
31746;SDS011;18319;48.974;8.462;2023-02-15T04:42:33;18.10;;;12.47;;
31746;SDS011;18319;48.974;8.462;2023-02-15T04:45:01;15.97;;;11.10;;
31746;SDS011;18319;48.974;8.462;2023-02-15T04:47:28;19.90;;;12.57;;
31746;SDS011;18319;48.974;8.462;2023-02-15T04:49:55;17.13;;;11.37;;
31746;SDS011;18319;48.974;8.462;2023-02-15T04:52:22;17.77;;;11.87;;
31746;SDS011;18319;48.974;8.462;2023-02-15T04:54:49;19.23;;;12.40;;
31746;SDS011;18319;48.974;8.462;2023-02-15T04:57:16;17.10;;;10.83;;
31746;SDS011;18319;48.974;8.462;2023-02-15T04:59:44;18.13;;;12.57;;
31746;SDS011;18319;48.974;8.462;2023-02-15T05:02:11;16.43;;;11.30;;
31746;SDS011;18319;48.974;8.462;2023-02-15T05:04:39;16.53;;;11.90;;
31746;SDS011;18319;48.974;8.462;2023-02-15T05:07:06;16.33;;;11.13;;
31746;SDS011;18319;48.974;8.462;2023-02-15T05:09:33;22.70;;;12.00;;
31746;SDS011;18319;48.974;8.462;2023-02-15T05:12:00;17.73;;;12.03;;
31746;SDS011;18319;48.974;8.462;2023-02-15T05:14:27;22.70;;;13.07;;
31746;SDS011;18319;48.974;8.462;2023-02-15T05:16:55;17.87;;;11.60;;
31746;SDS011;18319;48.974;8.462;2023-02-15T05:19:25;20.00;;;12.20;;
31746;SDS011;18319;48.974;8.462;2023-02-15T05:21:52;18.73;;;11.30;;
31746;SDS011;18319;48.974;8.462;2023-02-15T05:24:20;18.73;;;12.83;;
31746;SDS011;18319;48.974;8.462;2023-02-15T05:27:05;18.37;;;10.93;;
31746;SDS011;18319;48.974;8.462;2023-02-15T05:29:50;17.30;;;11.17;;
31746;SDS011;18319;48.974;8.462;2023-02-15T05:32:18;15.97;;;11.40;;
31746;SDS011;18319;48.974;8.462;2023-02-15T05:34:45;16.70;;;11.10;;
31746;SDS011;18319;48.974;8.462;2023-02-15T05:37:12;19.30;;;12.00;;
31746;SDS011;18319;48.974;8.462;2023-02-15T05:39:40;14.93;;;11.87;;
31746;SDS011;18319;48.974;8.462;2023-02-15T05:42:07;17.30;;;10.73;;
31746;SDS011;18319;48.974;8.462;2023-02-15T05:44:34;17.60;;;10.43;;
31746;SDS011;18319;48.974;8.462;2023-02-15T05:47:01;15.60;;;10.50;;
31746;SDS011;18319;48.974;8.462;2023-02-15T05:49:30;15.43;;;10.67;;
31746;SDS011;18319;48.974;8.462;2023-02-15T05:51:57;17.53;;;11.17;;
31746;SDS011;18319;48.974;8.462;2023-02-15T05:54:24;15.20;;;10.53;;
31746;SDS011;18319;48.974;8.462;2023-02-15T05:56:51;12.70;;;9.70;;
31746;SDS011;18319;48.974;8.462;2023-02-15T05:59:19;18.97;;;10.93;;
31746;SDS011;18319;48.974;8.462;2023-02-15T06:01:46;16.00;;;9.93;;
31746;SDS011;18319;48.974;8.462;2023-02-15T06:04:13;16.97;;;10.33;;
31746;SDS011;18319;48.974;8.462;2023-02-15T06:06:41;16.50;;;10.53;;
31746;SDS011;18319;48.974;8.462;2023-02-15T06:09:09;14.60;;;9.80;;
31746;SDS011;18319;48.974;8.462;2023-02-15T06:11:36;13.33;;;9.33;;
31746;SDS011;18319;48.974;8.462;2023-02-15T06:14:03;16.27;;;10.70;;
31746;SDS011;18319;48.974;8.462;2023-02-15T06:16:30;17.90;;;11.10;;
31746;SDS011;18319;48.974;8.462;2023-02-15T06:18:57;15.60;;;10.33;;
31746;SDS011;18319;48.974;8.462;2023-02-15T06:21:26;15.27;;;10.60;;
31746;SDS011;18319;48.974;8.462;2023-02-15T06:23:54;16.40;;;11.13;;
31746;SDS011;18319;48.974;8.462;2023-02-15T06:26:22;16.53;;;10.83;;
31746;SDS011;18319;48.974;8.462;2023-02-15T06:28:49;12.17;;;8.50;;
31746;SDS011;18319;48.974;8.462;2023-02-15T06:31:16;15.17;;;9.07;;
31746;SDS011;18319;48.974;8.462;2023-02-15T06:33:43;12.80;;;8.90;;
31746;SDS011;18319;48.974;8.462;2023-02-15T06:36:10;15.27;;;9.43;;
31746;SDS011;18319;48.974;8.462;2023-02-15T06:38:37;16.80;;;10.03;;
31746;SDS011;18319;48.974;8.462;2023-02-15T06:41:06;14.23;;;9.33;;
31746;SDS011;18319;48.974;8.462;2023-02-15T06:43:33;13.30;;;8.97;;
31746;SDS011;18319;48.974;8.462;2023-02-15T06:46:00;14.63;;;8.77;;
31746;SDS011;18319;48.974;8.462;2023-02-15T06:48:27;21.93;;;9.70;;
31746;SDS011;18319;48.974;8.462;2023-02-15T06:50:54;16.93;;;9.67;;
31746;SDS011;18319;48.974;8.462;2023-02-15T06:53:21;12.30;;;9.23;;
31746;SDS011;18319;48.974;8.462;2023-02-15T06:55:48;15.13;;;8.90;;
31746;SDS011;18319;48.974;8.462;2023-02-15T06:58:17;13.13;;;9.43;;
31746;SDS011;18319;48.974;8.462;2023-02-15T07:00:44;13.87;;;9.00;;
31746;SDS011;18319;48.974;8.462;2023-02-15T07:03:12;14.37;;;9.30;;
31746;SDS011;18319;48.974;8.462;2023-02-15T07:05:40;15.37;;;9.10;;
31746;SDS011;18319;48.974;8.462;2023-02-15T07:08:08;15.10;;;10.13;;
31746;SDS011;18319;48.974;8.462;2023-02-15T07:10:35;16.27;;;9.83;;
31746;SDS011;18319;48.974;8.462;2023-02-15T07:13:02;13.03;;;9.03;;
31746;SDS011;18319;48.974;8.462;2023-02-15T07:15:29;14.93;;;9.73;;
31746;SDS011;18319;48.974;8.462;2023-02-15T07:17:56;14.73;;;9.47;;
31746;SDS011;18319;48.974;8.462;2023-02-15T07:20:24;15.10;;;9.27;;
31746;SDS011;18319;48.974;8.462;2023-02-15T07:22:51;21.40;;;9.43;;
31746;SDS011;18319;48.974;8.462;2023-02-15T07:25:18;17.53;;;9.37;;
31746;SDS011;18319;48.974;8.462;2023-02-15T07:27:46;14.63;;;9.47;;
31746;SDS011;18319;48.974;8.462;2023-02-15T07:30:13;17.13;;;10.33;;
31746;SDS011;18319;48.974;8.462;2023-02-15T07:32:42;15.67;;;9.97;;
31746;SDS011;18319;48.974;8.462;2023-02-15T07:35:27;14.57;;;9.10;;
31746;SDS011;18319;48.974;8.462;2023-02-15T07:37:54;12.13;;;8.67;;
31746;SDS011;18319;48.974;8.462;2023-02-15T07:40:21;19.07;;;10.57;;
31746;SDS011;18319;48.974;8.462;2023-02-15T07:42:48;16.73;;;9.37;;
31746;SDS011;18319;48.974;8.462;2023-02-15T07:45:18;14.37;;;9.43;;
31746;SDS011;18319;48.974;8.462;2023-02-15T07:47:46;15.10;;;8.97;;
31746;SDS011;18319;48.974;8.462;2023-02-15T07:50:13;14.93;;;9.53;;
31746;SDS011;18319;48.974;8.462;2023-02-15T07:52:40;13.40;;;9.13;;
31746;SDS011;18319;48.974;8.462;2023-02-15T07:55:07;16.10;;;9.20;;
31746;SDS011;18319;48.974;8.462;2023-02-15T07:57:37;12.30;;;8.00;;
31746;SDS011;18319;48.974;8.462;2023-02-15T08:00:08;14.90;;;9.87;;
31746;SDS011;18319;48.974;8.462;2023-02-15T08:02:36;14.33;;;9.23;;
31746;SDS011;18319;48.974;8.462;2023-02-15T08:05:05;18.17;;;11.23;;
31746;SDS011;18319;48.974;8.462;2023-02-15T08:07:32;16.33;;;10.10;;
31746;SDS011;18319;48.974;8.462;2023-02-15T08:10:00;14.03;;;9.70;;
31746;SDS011;18319;48.974;8.462;2023-02-15T08:12:27;15.20;;;9.20;;
31746;SDS011;18319;48.974;8.462;2023-02-15T08:14:54;18.17;;;10.53;;
31746;SDS011;18319;48.974;8.462;2023-02-15T08:17:21;17.70;;;9.10;;
31746;SDS011;18319;48.974;8.462;2023-02-15T08:19:48;18.57;;;9.63;;
31746;SDS011;18319;48.974;8.462;2023-02-15T08:22:17;18.87;;;10.03;;
31746;SDS011;18319;48.974;8.462;2023-02-15T08:24:44;17.37;;;9.20;;
31746;SDS011;18319;48.974;8.462;2023-02-15T08:27:11;18.20;;;10.20;;
31746;SDS011;18319;48.974;8.462;2023-02-15T08:29:38;19.47;;;10.33;;
31746;SDS011;18319;48.974;8.462;2023-02-15T08:32:08;18.73;;;11.13;;
31746;SDS011;18319;48.974;8.462;2023-02-15T08:34:36;17.83;;;9.93;;
31746;SDS011;18319;48.974;8.462;2023-02-15T08:37:04;19.23;;;10.27;;
31746;SDS011;18319;48.974;8.462;2023-02-15T08:39:32;17.67;;;9.67;;
31746;SDS011;18319;48.974;8.462;2023-02-15T08:42:00;17.77;;;10.63;;
31746;SDS011;18319;48.974;8.462;2023-02-15T08:44:27;17.70;;;10.13;;
31746;SDS011;18319;48.974;8.462;2023-02-15T08:46:54;13.50;;;8.80;;
31746;SDS011;18319;48.974;8.462;2023-02-15T08:49:23;17.97;;;10.03;;
31746;SDS011;18319;48.974;8.462;2023-02-15T08:51:50;16.80;;;10.93;;
31746;SDS011;18319;48.974;8.462;2023-02-15T08:54:18;17.23;;;9.60;;
31746;SDS011;18319;48.974;8.462;2023-02-15T08:56:47;17.67;;;10.53;;
31746;SDS011;18319;48.974;8.462;2023-02-15T08:59:15;18.97;;;10.93;;
31746;SDS011;18319;48.974;8.462;2023-02-15T09:01:42;14.73;;;8.33;;
31746;SDS011;18319;48.974;8.462;2023-02-15T09:04:10;20.00;;;10.93;;
31746;SDS011;18319;48.974;8.462;2023-02-15T09:06:38;17.43;;;10.07;;
31746;SDS011;18319;48.974;8.462;2023-02-15T09:09:06;19.37;;;10.27;;
31746;SDS011;18319;48.974;8.462;2023-02-15T09:11:34;22.50;;;11.10;;
31746;SDS011;18319;48.974;8.462;2023-02-15T09:14:03;17.40;;;9.73;;
31746;SDS011;18319;48.974;8.462;2023-02-15T09:16:31;19.37;;;9.97;;
31746;SDS011;18319;48.974;8.462;2023-02-15T09:18:59;19.23;;;10.57;;
31746;SDS011;18319;48.974;8.462;2023-02-15T09:21:27;17.43;;;10.50;;
31746;SDS011;18319;48.974;8.462;2023-02-15T09:23:55;19.50;;;10.77;;
31746;SDS011;18319;48.974;8.462;2023-02-15T09:26:25;16.30;;;10.80;;
31746;SDS011;18319;48.974;8.462;2023-02-15T09:28:53;16.67;;;10.00;;
31746;SDS011;18319;48.974;8.462;2023-02-15T09:31:23;18.10;;;9.33;;
31746;SDS011;18319;48.974;8.462;2023-02-15T09:33:50;16.07;;;9.43;;
31746;SDS011;18319;48.974;8.462;2023-02-15T09:36:18;19.30;;;10.10;;
31746;SDS011;18319;48.974;8.462;2023-02-15T09:38:46;17.73;;;10.23;;
31746;SDS011;18319;48.974;8.462;2023-02-15T09:41:21;18.57;;;10.10;;
31746;SDS011;18319;48.974;8.462;2023-02-15T09:43:53;16.23;;;10.37;;
31746;SDS011;18319;48.974;8.462;2023-02-15T09:46:29;17.67;;;9.57;;
31746;SDS011;18319;48.974;8.462;2023-02-15T09:49:00;17.47;;;9.80;;
31746;SDS011;18319;48.974;8.462;2023-02-15T09:51:35;16.70;;;9.97;;
31746;SDS011;18319;48.974;8.462;2023-02-15T09:54:09;16.63;;;10.07;;
31746;SDS011;18319;48.974;8.462;2023-02-15T09:56:39;18.10;;;9.97;;
31746;SDS011;18319;48.974;8.462;2023-02-15T09:59:10;19.93;;;11.47;;
31746;SDS011;18319;48.974;8.462;2023-02-15T10:01:42;21.70;;;11.77;;
31746;SDS011;18319;48.974;8.462;2023-02-15T10:04:15;20.77;;;11.83;;
31746;SDS011;18319;48.974;8.462;2023-02-15T10:06:49;20.53;;;11.73;;
31746;SDS011;18319;48.974;8.462;2023-02-15T10:09:30;16.87;;;10.10;;
31746;SDS011;18319;48.974;8.462;2023-02-15T10:12:06;19.77;;;10.97;;
31746;SDS011;18319;48.974;8.462;2023-02-15T10:14:37;23.77;;;12.20;;
31746;SDS011;18319;48.974;8.462;2023-02-15T10:17:13;20.33;;;11.60;;
31746;SDS011;18319;48.974;8.462;2023-02-15T10:19:47;23.93;;;11.43;;
31746;SDS011;18319;48.974;8.462;2023-02-15T10:22:22;19.80;;;11.43;;
31746;SDS011;18319;48.974;8.462;2023-02-15T10:24:58;24.50;;;13.23;;
31746;SDS011;18319;48.974;8.462;2023-02-15T10:27:36;22.90;;;11.83;;
31746;SDS011;18319;48.974;8.462;2023-02-15T10:30:08;20.60;;;12.13;;
31746;SDS011;18319;48.974;8.462;2023-02-15T10:32:38;23.33;;;11.53;;
31746;SDS011;18319;48.974;8.462;2023-02-15T10:35:09;18.67;;;10.87;;
31746;SDS011;18319;48.974;8.462;2023-02-15T10:37:58;20.53;;;11.60;;
31746;SDS011;18319;48.974;8.462;2023-02-15T10:40:32;17.77;;;10.13;;
31746;SDS011;18319;48.974;8.462;2023-02-15T10:43:06;19.97;;;12.60;;
31746;SDS011;18319;48.974;8.462;2023-02-15T10:45:37;19.07;;;10.80;;
31746;SDS011;18319;48.974;8.462;2023-02-15T10:48:16;22.10;;;12.27;;
31746;SDS011;18319;48.974;8.462;2023-02-15T10:50:48;18.77;;;11.20;;
31746;SDS011;18319;48.974;8.462;2023-02-15T10:53:24;21.43;;;11.83;;
31746;SDS011;18319;48.974;8.462;2023-02-15T10:55:55;20.43;;;10.97;;
31746;SDS011;18319;48.974;8.462;2023-02-15T10:58:26;19.37;;;10.33;;
31746;SDS011;18319;48.974;8.462;2023-02-15T11:00:59;18.97;;;11.70;;
31746;SDS011;18319;48.974;8.462;2023-02-15T11:03:33;23.53;;;11.50;;
31746;SDS011;18319;48.974;8.462;2023-02-15T11:06:04;19.17;;;12.13;;
31746;SDS011;18319;48.974;8.462;2023-02-15T11:08:34;22.77;;;11.53;;
31746;SDS011;18319;48.974;8.462;2023-02-15T11:11:03;18.77;;;11.17;;
31746;SDS011;18319;48.974;8.462;2023-02-15T11:13:32;22.70;;;12.90;;
31746;SDS011;18319;48.974;8.462;2023-02-15T11:16:02;20.27;;;12.20;;
31746;SDS011;18319;48.974;8.462;2023-02-15T11:18:32;22.77;;;12.97;;
31746;SDS011;18319;48.974;8.462;2023-02-15T11:21:01;20.33;;;11.73;;
31746;SDS011;18319;48.974;8.462;2023-02-15T11:23:28;18.47;;;10.80;;
31746;SDS011;18319;48.974;8.462;2023-02-15T11:25:56;16.70;;;10.73;;
31746;SDS011;18319;48.974;8.462;2023-02-15T11:28:24;20.27;;;11.57;;
31746;SDS011;18319;48.974;8.462;2023-02-15T11:30:54;18.87;;;11.70;;
31746;SDS011;18319;48.974;8.462;2023-02-15T11:33:22;20.40;;;11.60;;
31746;SDS011;18319;48.974;8.462;2023-02-15T11:35:55;22.13;;;12.17;;
31746;SDS011;18319;48.974;8.462;2023-02-15T11:38:25;20.73;;;11.23;;
31746;SDS011;18319;48.974;8.462;2023-02-15T11:40:55;23.73;;;12.53;;
31746;SDS011;18319;48.974;8.462;2023-02-15T11:43:23;20.07;;;11.33;;
31746;SDS011;18319;48.974;8.462;2023-02-15T11:45:54;23.47;;;13.13;;
31746;SDS011;18319;48.974;8.462;2023-02-15T11:48:21;21.17;;;12.43;;
31746;SDS011;18319;48.974;8.462;2023-02-15T11:50:48;21.40;;;13.40;;
31746;SDS011;18319;48.974;8.462;2023-02-15T11:53:17;20.83;;;11.50;;
31746;SDS011;18319;48.974;8.462;2023-02-15T11:55:46;20.37;;;12.77;;
31746;SDS011;18319;48.974;8.462;2023-02-15T11:58:16;17.67;;;11.93;;
31746;SDS011;18319;48.974;8.462;2023-02-15T12:00:47;20.90;;;11.60;;
31746;SDS011;18319;48.974;8.462;2023-02-15T12:03:17;22.77;;;12.73;;
31746;SDS011;18319;48.974;8.462;2023-02-15T12:05:47;20.83;;;12.93;;
31746;SDS011;18319;48.974;8.462;2023-02-15T12:08:17;22.93;;;12.43;;
31746;SDS011;18319;48.974;8.462;2023-02-15T12:11:00;21.77;;;12.70;;
31746;SDS011;18319;48.974;8.462;2023-02-15T12:13:29;23.47;;;13.80;;
31746;SDS011;18319;48.974;8.462;2023-02-15T12:15:57;22.87;;;12.67;;
31746;SDS011;18319;48.974;8.462;2023-02-15T12:18:33;23.97;;;13.43;;
31746;SDS011;18319;48.974;8.462;2023-02-15T12:21:02;25.40;;;13.23;;
31746;SDS011;18319;48.974;8.462;2023-02-15T12:23:31;26.87;;;14.27;;
31746;SDS011;18319;48.974;8.462;2023-02-15T12:25:58;29.00;;;16.43;;
31746;SDS011;18319;48.974;8.462;2023-02-15T12:28:26;30.00;;;17.80;;
31746;SDS011;18319;48.974;8.462;2023-02-15T12:30:56;30.77;;;17.50;;
31746;SDS011;18319;48.974;8.462;2023-02-15T12:33:26;36.30;;;18.77;;
31746;SDS011;18319;48.974;8.462;2023-02-15T12:35:55;32.53;;;20.47;;
31746;SDS011;18319;48.974;8.462;2023-02-15T12:38:24;35.60;;;19.50;;
31746;SDS011;18319;48.974;8.462;2023-02-15T12:41:00;32.63;;;19.43;;
31746;SDS011;18319;48.974;8.462;2023-02-15T12:43:29;34.47;;;18.53;;
31746;SDS011;18319;48.974;8.462;2023-02-15T12:46:12;29.97;;;18.73;;
31746;SDS011;18319;48.974;8.462;2023-02-15T12:48:40;38.57;;;20.00;;
31746;SDS011;18319;48.974;8.462;2023-02-15T12:51:08;34.03;;;19.87;;
31746;SDS011;18319;48.974;8.462;2023-02-15T12:53:35;29.63;;;18.80;;
31746;SDS011;18319;48.974;8.462;2023-02-15T12:56:05;28.63;;;15.23;;
31746;SDS011;18319;48.974;8.462;2023-02-15T12:58:33;25.13;;;14.83;;
31746;SDS011;18319;48.974;8.462;2023-02-15T13:01:09;26.87;;;15.83;;
31746;SDS011;18319;48.974;8.462;2023-02-15T13:03:37;28.67;;;15.67;;
31746;SDS011;18319;48.974;8.462;2023-02-15T13:06:05;21.87;;;15.07;;
31746;SDS011;18319;48.974;8.462;2023-02-15T13:08:34;21.50;;;13.70;;
31746;SDS011;18319;48.974;8.462;2023-02-15T13:11:03;23.07;;;14.77;;
31746;SDS011;18319;48.974;8.462;2023-02-15T13:13:33;24.87;;;16.17;;
31746;SDS011;18319;48.974;8.462;2023-02-15T13:16:01;25.47;;;16.13;;
31746;SDS011;18319;48.974;8.462;2023-02-15T13:18:30;23.20;;;16.23;;
31746;SDS011;18319;48.974;8.462;2023-02-15T13:20:59;27.73;;;16.00;;
31746;SDS011;18319;48.974;8.462;2023-02-15T13:23:27;26.90;;;16.83;;
31746;SDS011;18319;48.974;8.462;2023-02-15T13:25:55;24.70;;;16.47;;
31746;SDS011;18319;48.974;8.462;2023-02-15T13:28:25;23.97;;;15.87;;
31746;SDS011;18319;48.974;8.462;2023-02-15T13:30:54;23.13;;;15.33;;
31746;SDS011;18319;48.974;8.462;2023-02-15T13:33:23;20.77;;;15.10;;
31746;SDS011;18319;48.974;8.462;2023-02-15T13:35:56;21.47;;;14.67;;
31746;SDS011;18319;48.974;8.462;2023-02-15T13:38:31;22.13;;;15.40;;
31746;SDS011;18319;48.974;8.462;2023-02-15T13:41:04;24.03;;;15.90;;
31746;SDS011;18319;48.974;8.462;2023-02-15T13:43:36;22.40;;;14.57;;
31746;SDS011;18319;48.974;8.462;2023-02-15T13:46:11;21.60;;;16.23;;
31746;SDS011;18319;48.974;8.462;2023-02-15T13:48:41;21.00;;;15.00;;
31746;SDS011;18319;48.974;8.462;2023-02-15T13:51:13;20.93;;;14.50;;
31746;SDS011;18319;48.974;8.462;2023-02-15T13:53:51;22.57;;;14.47;;
31746;SDS011;18319;48.974;8.462;2023-02-15T13:56:21;19.57;;;13.03;;
31746;SDS011;18319;48.974;8.462;2023-02-15T13:58:57;21.97;;;14.13;;
31746;SDS011;18319;48.974;8.462;2023-02-15T14:01:33;17.90;;;12.80;;
31746;SDS011;18319;48.974;8.462;2023-02-15T14:04:15;20.10;;;13.77;;
31746;SDS011;18319;48.974;8.462;2023-02-15T14:06:47;24.23;;;14.30;;
31746;SDS011;18319;48.974;8.462;2023-02-15T14:09:20;21.13;;;14.13;;
31746;SDS011;18319;48.974;8.462;2023-02-15T14:11:52;23.57;;;14.33;;
31746;SDS011;18319;48.974;8.462;2023-02-15T14:14:31;24.37;;;14.90;;
31746;SDS011;18319;48.974;8.462;2023-02-15T14:17:07;22.13;;;14.70;;
31746;SDS011;18319;48.974;8.462;2023-02-15T14:19:37;23.30;;;14.50;;
31746;SDS011;18319;48.974;8.462;2023-02-15T14:22:07;24.17;;;15.00;;
31746;SDS011;18319;48.974;8.462;2023-02-15T14:24:39;22.97;;;14.93;;
31746;SDS011;18319;48.974;8.462;2023-02-15T14:27:11;24.50;;;14.60;;
31746;SDS011;18319;48.974;8.462;2023-02-15T14:29:45;23.60;;;14.27;;
31746;SDS011;18319;48.974;8.462;2023-02-15T14:32:16;23.13;;;15.33;;
31746;SDS011;18319;48.974;8.462;2023-02-15T14:34:46;21.73;;;13.80;;
31746;SDS011;18319;48.974;8.462;2023-02-15T14:37:16;22.63;;;15.07;;
31746;SDS011;18319;48.974;8.462;2023-02-15T14:39:47;23.97;;;15.20;;
31746;SDS011;18319;48.974;8.462;2023-02-15T14:42:36;26.57;;;15.60;;